ADDS METAR Data INFO
IDs: Format: Raw Decoded Include TAF

Data at: 0839 UTC 21 Oct 2017

KSFB 210753Z AUTO 05004KT 10SM CLR 22/21 A3009 RMK AO2 SLP187 T02220206
KSFB 210653Z AUTO 08004KT 10SM CLR 23/21 A3010 RMK AO2 SLP191 T02280206
KSFB 210553Z AUTO 06004KT 10SM FEW032 23/21 A3011 RMK AO2 SLP194 60001 T02280206 10244 20222 58006
KSFB 210453Z AUTO 05005KT 10SM CLR 23/21 A3012 RMK AO2 SLP198 T02280206 403000211
KSFB 210353Z AUTO 07005KT 10SM CLR 23/21 A3013 RMK AO2 RAB13E24 SLP202 P0001 T02280206
KSFB 210253Z AUTO 06006KT 10SM FEW028 SCT045 23/19 A3013 RMK AO2 SLP200 T02330194 53007
KSFB 210153Z 04004KT 10SM CLR 23/19 A3012 RMK AO2 SLP197 T02280189
KSFB 210053Z 04004KT 10SM CLR 23/19 A3011 RMK AO2 SLP195 T02330189
KSFB 202353Z 06006KT 10SM FEW039 SCT055 24/19 A3011 RMK AO2 SLP194 T02440189 10300 20244 53006
KSFB 202253Z 07010KT 10SM CLR 26/19 A3010 RMK AO2 SLP190 T02560189
KSFB 202153Z 06013G21KT 10SM SCT038 27/19 A3009 RMK AO2 SLP188 T02670189
KSFB 202053Z 06015G22KT 10SM SCT038 SCT050 BKN060 28/19 A3009 RMK AO2 SLP187 T02780194 56007
KSFB 201953Z 07012KT 10SM FEW040 FEW047 SCT055 27/18 A3009 RMK AO2 SLP188 T02720183
KSFB 201853Z 09012KT 10SM SCT049 29/17 A3009 RMK AO2 SLP188 T02890172
KSFB 201753Z 08015KT 10SM CLR 29/17 A3011 RMK AO2 SLP194 T02940172 10300 20222 58017
KSFB 201653Z 07015G20KT 10SM SCT046 29/18 A3014 RMK AO2 SLP204 T02890178
KSFB 201553Z 07015KT 10SM FEW045 28/18 A3015 RMK AO2 SLP208 T02830178
KSFB 201453Z 07010G18KT 10SM SCT043 28/18 A3016 RMK AO2 SLP211 T02780178 51010
KSFB 201353Z 07010KT 10SM FEW041 26/19 A3015 RMK AO2 SLP210 T02610189
KSFB 201253Z 06006KT 10SM CLR 24/21 A3014 RMK AO2 SLP205 T02390206
KSFB 201153Z 02005KT 10SM CLR 22/20 A3013 RMK AO2 SLP201 70002 T02220200 10228 20211 53010
KSFB 201053Z AUTO 02005KT 10SM CLR 22/20 A3011 RMK AO2 SLP196 T02170200
KSFB 200953Z AUTO 05005KT 10SM CLR 22/19 A3010 RMK AO2 SLP191 T02170194
KSFB 200853Z AUTO 04005KT 10SM CLR 22/20 A3010 RMK AO2 SLP191 T02220200 55006
KSFB 200753Z AUTO 06006KT 10SM CLR 22/21 A3010 RMK AO2 SLP190 T02220206
KSFB 200653Z AUTO 03006KT 10SM CLR 22/21 A3011 RMK AO2 SLP194 T02220206
KSFB 200553Z AUTO 04005KT 10SM SCT060 23/21 A3012 RMK AO2 SLP197 60001 T02280211 10233 20228 55005
KSFB 200453Z AUTO 06005KT 10SM FEW034 OVC055 23/21 A3012 RMK AO2 SLP196 T02280211 403000217
KSFB 200353Z AUTO 04003KT 10SM BKN050 OVC075 23/21 A3012 RMK AO2 SLP199 T02280211
KSFB 200304Z AUTO 09006KT 10SM FEW012 SCT029 OVC055 23/22 A3013 RMK AO2 T02330217
KSFB 200253Z AUTO 07007KT 10SM FEW014 BKN029 OVC050 23/22 A3013 RMK AO2 RAB27E52 SLP202 P0001 60001 T02280222 53009
KSFB 200234Z AUTO 07007KT 7SM -RA FEW018 BKN028 OVC050 23/22 A3013 RMK AO2 RAB27 P0000 T02330217
KSFB 200153Z 03007KT 10SM CLR 23/21 A3011 RMK AO2 SLP194 T02330211
KSFB 200053Z 03007KT 10SM CLR 23/21 A3010 RMK AO2 SLP193 T02330211
KSFB 200000Z 05006KT 10SM SCT025 SCT030 BKN065 23/21 A3010 RMK AO2 T02330211
KSFB 192353Z 03005KT 10SM BKN023 BKN039 OVC090 23/21 A3010 RMK AO2 RAB15E25 SLP192 P0000 60001 T02330211 10300 20233 53012
KSFB 192253Z 08008KT 10SM BKN022 BKN034 OVC090 24/22 A3009 RMK AO2 RAB10E32 SLP188 P0001 T02390217
KSFB 192153Z 03012KT 10SM SCT035 27/22 A3008 RMK AO2 RAB2054E06 SLP183 P0000 T02670217
KSFB 192053Z 03013G24KT 9SM FEW034 SCT065 27/19 A3007 RMK AO2 SLP180 T02720189 55004